createdAt,value
2022-09-12T00:01:05.233Z,12.40
2022-09-12T00:03:33.274Z,12.30
2022-09-12T00:06:01.301Z,13.30
2022-09-12T00:08:29.224Z,14.30
2022-09-12T00:10:58.514Z,12.70
2022-09-12T00:13:26.380Z,12.20
2022-09-12T00:15:54.340Z,14.20
2022-09-12T00:18:22.243Z,13.30
2022-09-12T00:20:50.126Z,13.10
2022-09-12T00:23:18.026Z,11.90
2022-09-12T00:25:47.293Z,11.70
2022-09-12T00:28:19.065Z,13.40
2022-09-12T00:30:49.322Z,12.00
2022-09-12T00:33:18.625Z,12.80
2022-09-12T00:35:48.147Z,12.70
2022-09-12T00:38:16.963Z,11.80
2022-09-12T00:40:45.748Z,11.70
2022-09-12T00:43:34.305Z,11.90
2022-09-12T00:46:07.705Z,11.90
2022-09-12T00:48:41.632Z,12.10
2022-09-12T00:51:10.596Z,11.50
2022-09-12T00:53:39.943Z,11.40
2022-09-12T00:56:08.794Z,12.00
2022-09-12T00:58:44.232Z,11.70
2022-09-12T01:01:12.367Z,13.40
2022-09-12T01:03:41.653Z,11.30
2022-09-12T01:06:16.559Z,14.30
2022-09-12T01:08:46.795Z,11.90
2022-09-12T01:11:16.834Z,13.50
2022-09-12T01:13:47.089Z,12.20
2022-09-12T01:16:15.335Z,11.10
2022-09-12T01:18:53.750Z,11.20
2022-09-12T01:21:34.666Z,11.30
2022-09-12T01:24:35.631Z,11.20
2022-09-12T01:27:21.472Z,11.20
2022-09-12T01:30:24.839Z,11.20
2022-09-12T01:33:28.646Z,11.20
2022-09-12T01:36:12.442Z,11.20
2022-09-12T01:38:47.778Z,11.10
2022-09-12T01:41:20.592Z,11.00
2022-09-12T01:43:54.707Z,12.20
2022-09-12T01:46:28.571Z,11.00
2022-09-12T01:49:07.403Z,10.90
2022-09-12T01:51:40.694Z,10.90
2022-09-12T01:54:13.590Z,10.90
2022-09-12T01:56:44.744Z,10.90
2022-09-12T01:59:19.124Z,11.10
2022-09-12T02:01:50.686Z,11.10
2022-09-12T02:04:23.910Z,10.70
2022-09-12T02:06:58.375Z,10.90
2022-09-12T02:09:32.015Z,11.00
2022-09-12T02:12:01.802Z,10.70
2022-09-12T02:14:33.298Z,10.70
2022-09-12T02:17:07.083Z,10.70
2022-09-12T02:19:42.067Z,10.60
2022-09-12T02:22:14.628Z,10.60
2022-09-12T02:24:46.645Z,10.70
2022-09-12T02:27:17.500Z,10.60
2022-09-12T02:29:46.496Z,10.30
2022-09-12T02:32:26.508Z,11.40
2022-09-12T02:35:00.803Z,10.50
2022-09-12T02:37:41.690Z,10.50
2022-09-12T02:40:09.926Z,10.40
2022-09-12T02:42:38.043Z,10.40
2022-09-12T02:45:07.157Z,10.40
2022-09-12T02:47:38.725Z,10.40
2022-09-12T02:50:09.775Z,10.40
2022-09-12T02:52:37.731Z,10.40
2022-09-12T02:55:08.384Z,10.30
2022-09-12T02:57:36.616Z,10.30
2022-09-12T03:00:06.271Z,10.10
2022-09-12T03:02:48.223Z,10.20
2022-09-12T03:05:27.814Z,10.10
2022-09-12T03:08:17.010Z,10.20
2022-09-12T03:11:00.359Z,10.20
2022-09-12T03:13:38.814Z,10.00
2022-09-12T03:16:14.646Z,10.20
2022-09-12T03:18:52.255Z,11.20
2022-09-12T03:21:27.188Z,10.10
2022-09-12T03:24:06.081Z,10.10
2022-09-12T03:26:39.354Z,10.00
2022-09-12T03:29:08.851Z,10.10
2022-09-12T03:31:36.740Z,10.00
2022-09-12T03:34:05.102Z,10.50
2022-09-12T03:36:34.411Z,10.00
2022-09-12T03:39:02.274Z,10.00
2022-09-12T03:41:30.219Z,9.90
2022-09-12T03:43:58.059Z,10.00
2022-09-12T03:46:25.928Z,9.90
2022-09-12T03:48:53.796Z,10.60
2022-09-12T03:51:21.680Z,9.90
2022-09-12T03:53:50.936Z,9.70
2022-09-12T03:56:19.267Z,10.00
2022-09-12T03:58:47.996Z,9.90
2022-09-12T04:01:17.672Z,9.90
2022-09-12T04:03:46.720Z,9.90
2022-09-12T04:06:16.703Z,9.90
2022-09-12T04:08:45.662Z,10.00
2022-09-12T04:11:16.527Z,10.10
2022-09-12T04:13:45.514Z,9.80
2022-09-12T04:16:15.012Z,9.80
2022-09-12T04:18:43.240Z,9.70
2022-09-12T04:21:13.331Z,9.80
2022-09-12T04:23:41.236Z,9.70
2022-09-12T04:26:09.784Z,9.70
2022-09-12T04:28:39.676Z,9.70
2022-09-12T04:31:09.630Z,9.70
2022-09-12T04:33:37.995Z,9.70
2022-09-12T04:36:08.117Z,10.20
2022-09-12T04:38:37.076Z,9.70
2022-09-12T04:41:12.361Z,9.60
2022-09-12T04:43:41.959Z,9.70
2022-09-12T04:46:11.449Z,9.70
2022-09-12T04:48:39.736Z,10.00
2022-09-12T04:51:09.360Z,9.60
2022-09-12T04:53:37.986Z,9.60
2022-09-12T04:56:07.198Z,9.60
2022-09-12T04:58:36.113Z,9.60
2022-09-12T05:01:08.168Z,9.60
2022-09-12T05:03:38.863Z,9.60
2022-09-12T05:06:08.842Z,9.70
2022-09-12T05:08:36.836Z,9.70
2022-09-12T05:11:05.925Z,9.60
2022-09-12T05:13:35.107Z,9.70
2022-09-12T05:16:04.711Z,9.70
2022-09-12T05:18:35.427Z,9.80
2022-09-12T05:21:05.346Z,9.80
2022-09-12T05:23:33.874Z,9.90
2022-09-12T05:26:03.012Z,11.20
2022-09-12T05:28:33.854Z,10.00
2022-09-12T05:31:03.192Z,10.00
2022-09-12T05:33:33.448Z,10.00
2022-09-12T05:36:01.642Z,10.30
2022-09-12T05:38:29.746Z,10.30
2022-09-12T05:41:06.174Z,11.30
2022-09-12T05:43:34.300Z,10.60
2022-09-12T05:46:03.309Z,10.40
2022-09-12T05:48:31.480Z,10.50
2022-09-12T05:51:06.923Z,10.50
2022-09-12T05:53:34.831Z,10.80
2022-09-12T05:56:10.718Z,11.20
2022-09-12T05:58:41.087Z,11.40
2022-09-12T06:01:11.401Z,11.60
2022-09-12T06:03:42.803Z,11.90
2022-09-12T06:06:13.802Z,12.20
2022-09-12T06:08:43.041Z,12.40
2022-09-12T06:11:12.842Z,12.60
2022-09-12T06:13:42.259Z,12.80
2022-09-12T06:16:11.411Z,13.30
2022-09-12T06:18:40.406Z,13.10
2022-09-12T06:21:10.022Z,13.20
2022-09-12T06:23:39.660Z,13.30
2022-09-12T06:26:09.562Z,14.20
2022-09-12T06:28:39.321Z,14.10
2022-09-12T06:31:09.632Z,13.80
2022-09-12T06:33:39.197Z,14.10
2022-09-12T06:36:12.418Z,14.10
2022-09-12T06:38:42.231Z,13.90
2022-09-12T06:41:12.366Z,14.10
2022-09-12T06:43:41.045Z,14.90
2022-09-12T06:46:09.212Z,14.30
2022-09-12T06:48:41.508Z,14.60
2022-09-12T06:51:13.282Z,14.40
2022-09-12T06:53:43.691Z,14.50
2022-09-12T06:56:14.414Z,15.10
2022-09-12T06:58:43.337Z,14.60
2022-09-12T07:01:12.954Z,14.90
2022-09-12T07:03:42.379Z,15.50
2022-09-12T07:06:11.815Z,14.90
2022-09-12T07:08:41.914Z,15.00
2022-09-12T07:11:11.717Z,15.20
2022-09-12T07:13:40.044Z,15.90
2022-09-12T07:16:08.255Z,15.90
2022-09-12T07:18:40.091Z,15.80
2022-09-12T07:21:09.719Z,16.20
2022-09-12T07:23:37.925Z,16.00
2022-09-12T07:26:08.039Z,16.30
2022-09-12T07:28:36.378Z,16.60
2022-09-12T07:31:09.102Z,17.70
2022-09-12T07:33:37.663Z,17.20
2022-09-12T07:36:07.874Z,17.50
2022-09-12T07:38:36.646Z,17.80
2022-09-12T07:41:12.974Z,18.20
2022-09-12T07:43:41.769Z,18.40
2022-09-12T07:46:10.487Z,18.90
2022-09-12T07:48:39.096Z,19.20
2022-09-12T07:51:09.023Z,19.50
2022-09-12T07:53:39.187Z,19.60
2022-09-12T07:56:10.221Z,19.80
2022-09-12T07:58:41.970Z,20.40
2022-09-12T08:01:12.878Z,20.60
2022-09-12T08:03:41.746Z,20.60
2022-09-12T08:06:11.100Z,20.80
2022-09-12T08:08:39.572Z,21.00
2022-09-12T08:11:09.798Z,21.10
2022-09-12T08:13:40.501Z,21.20
2022-09-12T08:16:12.057Z,21.40
2022-09-12T08:18:40.792Z,21.50
2022-09-12T08:21:11.587Z,21.70
2022-09-12T08:23:39.583Z,21.90
2022-09-12T08:26:08.240Z,22.10
2022-09-12T08:28:37.410Z,22.20
2022-09-12T08:31:08.224Z,22.30
2022-09-12T08:33:37.142Z,22.50
2022-09-12T08:36:10.917Z,22.60
2022-09-12T08:38:39.944Z,22.80
2022-09-12T08:41:13.506Z,23.00
2022-09-12T08:43:57.342Z,23.10
2022-09-12T08:46:34.002Z,23.10
2022-09-12T08:49:03.964Z,23.10
2022-09-12T08:51:34.186Z,23.10
2022-09-12T08:54:03.347Z,23.00
2022-09-12T08:56:35.504Z,22.80
2022-09-12T08:59:04.240Z,22.80
2022-09-12T09:01:38.369Z,22.80
2022-09-12T09:04:21.666Z,22.80
2022-09-12T09:07:08.816Z,23.00
2022-09-12T09:09:49.237Z,23.00
2022-09-12T09:12:23.803Z,23.00
2022-09-12T09:15:12.127Z,23.10
2022-09-12T09:17:43.933Z,23.20
2022-09-12T09:20:28.822Z,23.20
2022-09-12T09:23:02.378Z,23.30
2022-09-12T09:25:42.047Z,23.30
2022-09-12T09:28:16.763Z,23.40
2022-09-12T09:30:45.407Z,23.50
2022-09-12T09:33:22.223Z,23.60
2022-09-12T09:35:57.765Z,23.60
2022-09-12T09:38:31.936Z,23.60
2022-09-12T09:41:14.947Z,23.50
2022-09-12T09:43:42.836Z,23.50
2022-09-12T09:46:11.767Z,23.60
2022-09-12T09:48:44.507Z,23.60
2022-09-12T09:51:12.943Z,23.70
2022-09-12T09:53:46.450Z,23.80
2022-09-12T09:56:23.341Z,23.80
2022-09-12T09:58:51.275Z,23.90
2022-09-12T10:01:19.832Z,24.00
2022-09-12T10:03:53.940Z,24.00
2022-09-12T10:06:31.044Z,23.90
2022-09-12T10:09:25.389Z,24.10
2022-09-12T10:11:54.963Z,24.20
2022-09-12T10:14:35.148Z,24.20
2022-09-12T10:17:04.696Z,24.10
2022-09-12T10:19:39.854Z,24.10
2022-09-12T10:22:15.023Z,24.30
2022-09-12T10:24:48.670Z,24.50
2022-09-12T10:27:20.207Z,24.50
2022-09-12T10:29:51.968Z,24.50
2022-09-12T10:32:31.126Z,24.30
2022-09-12T10:35:03.751Z,24.40
2022-09-12T10:37:34.514Z,24.10
2022-09-12T10:40:04.038Z,24.20
2022-09-12T10:42:50.847Z,24.20
2022-09-12T10:45:29.964Z,24.50
2022-09-12T10:48:03.022Z,24.70
2022-09-12T10:50:37.717Z,24.70
2022-09-12T10:53:19.515Z,24.80
2022-09-12T10:56:03.856Z,25.00
2022-09-12T10:58:50.632Z,25.00
2022-09-12T11:01:33.845Z,24.90
2022-09-12T11:04:21.514Z,24.90
2022-09-12T11:07:03.542Z,24.70
2022-09-12T11:09:37.447Z,24.70
2022-09-12T11:12:16.319Z,24.70
2022-09-12T11:14:59.866Z,24.80
2022-09-12T11:17:37.976Z,24.90
2022-09-12T11:20:43.749Z,25.00
2022-09-12T11:23:39.491Z,25.00
2022-09-12T11:26:17.379Z,25.00
2022-09-12T11:28:53.906Z,24.90
2022-09-12T11:31:45.727Z,24.90
2022-09-12T11:34:17.875Z,25.00
2022-09-12T11:36:56.954Z,25.10
2022-09-12T11:39:36.731Z,25.20
2022-09-12T11:42:11.213Z,25.40
2022-09-12T11:44:42.796Z,25.40
2022-09-12T11:47:14.155Z,25.40
2022-09-12T11:49:47.295Z,25.60
2022-09-12T11:52:18.114Z,25.70
2022-09-12T11:54:53.841Z,25.80
2022-09-12T11:57:28.319Z,26.00
2022-09-12T12:00:00.103Z,26.10
2022-09-12T12:02:29.674Z,26.20
2022-09-12T12:05:06.470Z,26.20
2022-09-12T12:07:45.328Z,26.10
2022-09-12T12:10:27.473Z,26.00
2022-09-12T12:12:57.548Z,25.90
2022-09-12T12:15:27.259Z,26.00
2022-09-12T12:18:03.731Z,25.90
2022-09-12T12:20:32.395Z,26.00
2022-09-12T12:23:01.275Z,26.20
2022-09-12T12:25:51.418Z,26.20
2022-09-12T12:28:50.660Z,26.20
2022-09-12T12:31:19.579Z,26.20
2022-09-12T12:33:57.405Z,26.00
2022-09-12T12:36:41.284Z,25.90
2022-09-12T12:39:49.837Z,25.90
2022-09-12T12:46:08.049Z,26.00
2022-09-12T12:48:56.110Z,26.20
2022-09-12T12:51:34.316Z,26.40
2022-09-12T12:54:04.790Z,26.50
2022-09-12T12:56:40.664Z,26.60
2022-09-12T12:59:18.649Z,26.50
2022-09-12T13:01:54.947Z,26.40
2022-09-12T13:04:25.949Z,26.40
2022-09-12T13:07:05.850Z,26.30
2022-09-12T13:09:39.787Z,26.20
2022-09-12T13:12:11.730Z,26.10
2022-09-12T13:14:51.482Z,26.10
2022-09-12T13:17:37.838Z,26.00
2022-09-12T13:20:29.061Z,25.90
2022-09-12T13:22:58.111Z,25.90
2022-09-12T13:25:29.677Z,25.90
2022-09-12T13:28:04.172Z,25.80
2022-09-12T13:30:34.377Z,25.80
2022-09-12T13:33:18.991Z,25.70
2022-09-12T13:36:14.062Z,25.70
2022-09-12T13:38:52.370Z,25.80
2022-09-12T13:41:43.829Z,25.80
2022-09-12T13:44:14.185Z,25.80
2022-09-12T13:46:42.542Z,25.80
2022-09-12T13:49:22.312Z,25.60
2022-09-12T13:51:59.463Z,25.60
2022-09-12T13:54:27.978Z,25.70
2022-09-12T13:56:56.112Z,25.60
2022-09-12T13:59:24.026Z,25.50
2022-09-12T14:01:52.137Z,25.50
2022-09-12T14:04:40.921Z,25.50
2022-09-12T14:07:15.007Z,25.60
2022-09-12T14:09:45.919Z,25.60
2022-09-12T14:12:22.187Z,25.50
2022-09-12T14:14:52.042Z,25.50
2022-09-12T14:17:25.276Z,25.30
2022-09-12T14:19:55.012Z,25.30
2022-09-12T14:22:23.476Z,25.30
2022-09-12T14:24:52.434Z,25.40
2022-09-12T14:27:24.463Z,25.40
2022-09-12T14:29:55.639Z,25.50
2022-09-12T14:32:25.403Z,25.50
2022-09-12T14:35:22.255Z,25.50
2022-09-12T14:37:52.399Z,25.40
2022-09-12T14:40:22.227Z,25.20
2022-09-12T14:42:51.778Z,25.20
2022-09-12T14:45:26.181Z,25.20
2022-09-12T14:47:54.820Z,25.10
2022-09-12T14:50:27.647Z,25.20
2022-09-12T14:53:05.366Z,25.20
2022-09-12T14:55:35.852Z,25.20
2022-09-12T14:58:23.357Z,25.10
2022-09-12T15:00:56.913Z,25.10
2022-09-12T15:03:28.090Z,25.10
2022-09-12T15:05:58.243Z,25.10
2022-09-12T15:08:26.803Z,25.10
2022-09-12T15:10:55.036Z,24.90
2022-09-12T15:13:25.717Z,24.90
2022-09-12T15:15:55.732Z,24.90
2022-09-12T15:18:26.510Z,24.90
2022-09-12T15:20:58.838Z,24.90
2022-09-12T15:23:38.209Z,24.80
2022-09-12T15:26:07.251Z,24.70
2022-09-12T15:28:35.762Z,24.70
2022-09-12T15:31:09.229Z,24.70
2022-09-12T15:33:37.091Z,24.70
2022-09-12T15:36:14.875Z,24.60
2022-09-12T15:38:42.809Z,24.60
2022-09-12T15:41:13.018Z,24.60
2022-09-12T15:43:40.975Z,24.60
2022-09-12T15:46:12.251Z,24.60
2022-09-12T15:48:40.447Z,24.60
2022-09-12T15:51:15.381Z,24.60
2022-09-12T15:53:44.334Z,24.60
2022-09-12T15:56:12.258Z,24.50
2022-09-12T15:58:49.988Z,24.40
2022-09-12T16:01:25.962Z,24.40
2022-09-12T16:03:54.184Z,24.30
2022-09-12T16:06:23.853Z,24.20
2022-09-12T16:08:52.320Z,24.10
2022-09-12T16:11:22.850Z,24.00
2022-09-12T16:13:52.471Z,24.00
2022-09-12T16:16:20.480Z,23.90
2022-09-12T16:18:48.476Z,23.90
2022-09-12T16:21:16.407Z,23.80
2022-09-12T16:23:45.856Z,23.80
2022-09-12T16:26:13.984Z,23.70
2022-09-12T16:28:42.370Z,23.70
2022-09-12T16:31:13.582Z,23.60
2022-09-12T16:33:41.913Z,23.60
2022-09-12T16:36:11.819Z,23.50
2022-09-12T16:38:42.081Z,23.40
2022-09-12T16:41:12.200Z,23.40
2022-09-12T16:43:40.975Z,23.30
2022-09-12T16:46:11.080Z,23.20
2022-09-12T16:48:44.444Z,23.10
2022-09-12T16:51:14.749Z,23.10
2022-09-12T16:53:42.913Z,23.00
2022-09-12T16:56:12.175Z,22.90
2022-09-12T16:58:42.332Z,22.90
2022-09-12T17:01:11.915Z,22.80
2022-09-12T17:03:40.035Z,22.70
2022-09-12T17:06:09.949Z,22.10
2022-09-12T17:08:39.506Z,22.60
2022-09-12T17:11:08.855Z,22.60
2022-09-12T17:14:02.730Z,22.50
2022-09-12T17:16:27.281Z,22.30
2022-09-12T17:18:56.122Z,22.30
2022-09-12T17:21:24.718Z,22.20
2022-09-12T17:23:52.593Z,22.10
2022-09-12T17:26:20.700Z,22.00
2022-09-12T17:28:50.069Z,21.90
2022-09-12T17:31:18.054Z,21.80
2022-09-12T17:33:46.242Z,21.70
2022-09-12T17:36:16.322Z,21.60
2022-09-12T17:38:46.371Z,21.40
2022-09-12T17:41:17.363Z,21.30
2022-09-12T17:43:46.029Z,21.20
2022-09-12T17:46:15.621Z,21.10
2022-09-12T17:48:43.671Z,20.90
2022-09-12T17:51:14.121Z,20.70
2022-09-12T17:53:42.407Z,20.60
2022-09-12T17:56:11.564Z,20.50
2022-09-12T17:58:39.655Z,20.40
2022-09-12T18:01:28.765Z,20.20
2022-09-12T18:04:00.443Z,20.10
2022-09-12T18:06:28.674Z,20.00
2022-09-12T18:08:57.003Z,19.90
2022-09-12T18:11:24.868Z,19.80
2022-09-12T18:13:52.735Z,19.70
2022-09-12T18:16:20.657Z,19.60
2022-09-12T18:18:50.899Z,19.60
2022-09-12T18:21:20.434Z,19.40
2022-09-12T18:23:48.326Z,19.30
2022-09-12T18:26:16.338Z,19.10
2022-09-12T18:28:45.595Z,19.10
2022-09-12T18:31:16.741Z,18.90
2022-09-12T18:33:45.159Z,18.80
2022-09-12T18:36:14.522Z,18.70
2022-09-12T18:38:45.138Z,18.60
2022-09-12T18:41:14.780Z,18.50
2022-09-12T18:43:43.072Z,18.40
2022-09-12T18:46:12.910Z,18.30
2022-09-12T18:48:40.957Z,18.30
2022-09-12T18:51:12.117Z,18.20
2022-09-12T18:53:40.708Z,18.20
2022-09-12T18:56:12.028Z,18.00
2022-09-12T18:58:41.576Z,17.90
2022-09-12T19:01:11.190Z,17.80
2022-09-12T19:03:39.142Z,17.80
2022-09-12T19:06:12.125Z,18.00
2022-09-12T19:08:40.714Z,17.60
2022-09-12T19:11:11.035Z,17.60
2022-09-12T19:13:40.687Z,17.50
2022-09-12T19:16:10.849Z,17.40
2022-09-12T19:18:39.623Z,17.60
2022-09-12T19:21:16.185Z,17.30
2022-09-12T19:23:44.075Z,17.20
2022-09-12T19:26:14.966Z,17.10
2022-09-12T19:28:43.428Z,17.00
2022-09-12T19:31:13.631Z,16.80
2022-09-12T19:33:42.454Z,16.90
2022-09-12T19:36:27.611Z,16.80
2022-09-12T19:39:00.469Z,16.70
2022-09-12T19:41:30.029Z,17.00
2022-09-12T19:43:58.085Z,16.70
2022-09-12T19:46:27.060Z,16.60
2022-09-12T19:48:55.406Z,16.50
2022-09-12T19:51:25.171Z,16.70
2022-09-12T19:53:53.628Z,16.40
2022-09-12T19:56:21.975Z,16.40
2022-09-12T19:58:56.116Z,16.30
2022-09-12T20:01:28.168Z,16.30
2022-09-12T20:03:57.009Z,16.50
2022-09-12T20:06:43.130Z,16.10
2022-09-12T20:09:10.959Z,16.10
2022-09-12T20:11:38.813Z,16.20
2022-09-12T20:14:08.099Z,16.10
2022-09-12T20:16:35.947Z,16.00
2022-09-12T20:19:06.958Z,16.10
2022-09-12T20:21:35.945Z,15.90
2022-09-12T20:24:06.502Z,15.70
2022-09-12T20:26:34.614Z,15.80
2022-09-12T20:29:03.248Z,15.70
2022-09-12T20:31:33.254Z,15.50
2022-09-12T20:34:01.341Z,15.70
2022-09-12T20:36:29.395Z,15.60
2022-09-12T20:38:59.925Z,15.60
2022-09-12T20:41:29.911Z,15.60
2022-09-12T20:43:58.397Z,15.30
2022-09-12T20:46:27.811Z,15.50
2022-09-12T20:48:58.343Z,16.00
2022-09-12T20:51:27.543Z,15.40
2022-09-12T20:53:56.539Z,15.10
2022-09-12T20:56:26.573Z,15.40
2022-09-12T20:58:55.079Z,15.30
2022-09-12T21:01:23.486Z,15.30
2022-09-12T21:03:51.537Z,15.40
2022-09-12T21:06:21.313Z,15.20
2022-09-12T21:08:50.445Z,15.10
2022-09-12T21:11:19.505Z,15.30
2022-09-12T21:13:47.879Z,15.20
2022-09-12T21:16:18.298Z,15.90
2022-09-12T21:18:46.536Z,15.50
2022-09-12T21:21:15.794Z,15.10
2022-09-12T21:23:45.086Z,15.10
2022-09-12T21:26:13.060Z,15.10
2022-09-12T21:28:41.087Z,15.10
2022-09-12T21:31:09.160Z,15.10
2022-09-12T21:33:37.152Z,15.40
2022-09-12T21:36:06.196Z,15.10
2022-09-12T21:38:34.966Z,15.10
2022-09-12T21:41:09.298Z,15.20
2022-09-12T21:43:38.026Z,15.10
2022-09-12T21:46:07.078Z,15.10
2022-09-12T21:48:35.758Z,15.20
2022-09-12T21:51:04.605Z,15.00
2022-09-12T21:53:33.005Z,15.20
2022-09-12T21:56:05.595Z,15.00
2022-09-12T21:58:34.875Z,15.30
2022-09-12T22:01:02.999Z,15.40
2022-09-12T22:03:31.289Z,15.40
2022-09-12T22:05:59.310Z,15.70
2022-09-12T22:08:27.477Z,15.30
2022-09-12T22:10:59.415Z,15.70
2022-09-12T22:13:27.390Z,15.40
2022-09-12T22:15:56.894Z,15.40
2022-09-12T22:18:24.902Z,15.50
2022-09-12T22:21:00.109Z,15.50
2022-09-12T22:23:45.698Z,15.70
2022-09-12T22:26:14.082Z,15.30
2022-09-12T22:28:42.616Z,15.40
2022-09-12T22:31:13.206Z,15.50
2022-09-12T22:33:41.539Z,15.50
2022-09-12T22:36:10.923Z,15.50
2022-09-12T22:38:38.871Z,15.40
2022-09-12T22:41:08.312Z,15.70
2022-09-12T22:43:37.225Z,15.40
2022-09-12T22:46:07.887Z,15.40
2022-09-12T22:48:37.792Z,15.50
2022-09-12T22:51:06.389Z,15.60
2022-09-12T22:53:34.678Z,15.40
2022-09-12T22:56:04.931Z,15.30
2022-09-12T22:58:33.001Z,15.40
2022-09-12T23:01:00.967Z,15.20
2022-09-12T23:03:28.898Z,15.70
2022-09-12T23:05:58.259Z,15.80
2022-09-12T23:08:29.358Z,15.70
2022-09-12T23:11:02.583Z,15.30
2022-09-12T23:13:30.977Z,15.90
2022-09-12T23:15:59.643Z,15.40
2022-09-12T23:18:28.226Z,15.50
2022-09-12T23:21:02.012Z,16.00
2022-09-12T23:23:30.239Z,15.30
2022-09-12T23:26:06.117Z,15.40
2022-09-12T23:28:34.502Z,15.00
2022-09-12T23:31:03.140Z,14.90
2022-09-12T23:33:32.525Z,15.10
2022-09-12T23:36:03.061Z,15.00
2022-09-12T23:38:31.172Z,15.20
2022-09-12T23:40:59.959Z,15.20
2022-09-12T23:43:28.061Z,13.70
2022-09-12T23:45:55.983Z,15.10
2022-09-12T23:48:23.905Z,15.80
2022-09-12T23:50:51.787Z,15.20
2022-09-12T23:53:21.859Z,15.10
2022-09-12T23:55:50.271Z,15.30
2022-09-12T23:58:18.561Z,15.30
